createdAt,value
2022-10-26T04:17:00.122Z,1.95
2022-10-26T04:19:26.543Z,1.55
2022-10-26T04:21:53.088Z,1.95
2022-10-26T04:24:19.565Z,3.22
2022-10-26T04:26:45.999Z,1.73
2022-10-26T04:29:13.689Z,1.30
2022-10-26T04:31:41.276Z,2.15
2022-10-26T04:34:07.740Z,3.28
2022-10-26T04:36:35.050Z,2.15
2022-10-26T04:39:02.011Z,2.17
2022-10-26T04:41:28.470Z,1.83
2022-10-26T04:43:54.905Z,1.95
2022-10-26T04:46:21.393Z,1.85
2022-10-26T04:48:48.566Z,1.52
2022-10-26T04:51:15.148Z,1.55
2022-10-26T04:53:41.620Z,1.58
2022-10-26T04:56:08.793Z,1.50
2022-10-26T04:58:41.491Z,2.03
2022-10-26T05:01:08.093Z,2.13
2022-10-26T05:03:34.595Z,1.88
2022-10-26T05:06:01.100Z,1.30
2022-10-26T05:08:29.844Z,1.30
2022-10-26T05:10:56.765Z,1.50
2022-10-26T05:13:23.305Z,1.30
2022-10-26T05:15:54.162Z,1.60
2022-10-26T05:18:22.873Z,2.10
2022-10-26T05:20:55.704Z,1.38
2022-10-26T05:23:27.294Z,1.85
2022-10-26T05:25:55.774Z,2.03
2022-10-26T05:28:22.393Z,1.60
2022-10-26T05:31:51.199Z,1.73
2022-10-26T05:34:17.695Z,2.47
2022-10-26T05:36:44.124Z,1.88
2022-10-26T05:39:10.530Z,1.73
2022-10-26T05:41:36.963Z,1.02
2022-10-26T05:44:03.536Z,2.22
2022-10-26T05:46:33.181Z,1.77
2022-10-26T05:48:59.718Z,1.70
2022-10-26T05:51:26.291Z,2.35
2022-10-26T05:53:54.663Z,1.67
2022-10-26T05:56:49.547Z,2.05
2022-10-26T05:59:18.516Z,2.00
2022-10-26T06:02:03.802Z,1.90
2022-10-26T06:04:38.540Z,1.85
2022-10-26T06:07:12.123Z,2.13
2022-10-26T06:09:39.715Z,1.50
2022-10-26T06:12:07.498Z,1.75
2022-10-26T06:14:35.227Z,1.63
2022-10-26T06:17:29.703Z,2.33
2022-10-26T06:23:18.646Z,2.50
2022-10-26T06:26:35.046Z,2.00
2022-10-26T06:29:17.780Z,2.03
2022-10-26T06:31:48.025Z,2.60
2022-10-26T06:34:23.095Z,2.17
2022-10-26T06:36:50.490Z,1.75
2022-10-26T06:39:18.238Z,1.77
2022-10-26T06:41:44.943Z,2.22
2022-10-26T06:44:22.632Z,3.17
2022-10-26T06:46:55.600Z,1.92
2022-10-26T06:50:23.208Z,3.63
2022-10-26T06:53:12.306Z,1.67
2022-10-26T06:55:49.658Z,1.63
2022-10-26T06:58:24.416Z,2.22
2022-10-26T07:00:55.022Z,3.42
2022-10-26T07:03:25.523Z,1.80
2022-10-26T07:05:52.170Z,2.58
2022-10-26T07:08:19.029Z,2.88
2022-10-26T07:10:47.023Z,2.22
2022-10-26T07:13:13.571Z,1.60
2022-10-26T07:15:41.048Z,2.63
2022-10-26T07:18:07.967Z,2.17
2022-10-26T07:20:42.083Z,1.60
2022-10-26T07:23:12.966Z,1.70
2022-10-26T07:25:40.453Z,2.25
2022-10-26T07:28:10.130Z,1.92
2022-10-26T07:30:39.590Z,2.45
2022-10-26T07:33:32.255Z,2.20
2022-10-26T07:35:59.891Z,2.08
2022-10-26T07:38:26.433Z,1.73
2022-10-26T07:40:54.218Z,2.45
2022-10-26T07:43:46.515Z,1.73
2022-10-26T07:46:13.077Z,1.90
2022-10-26T07:48:41.761Z,1.92
2022-10-26T07:51:09.557Z,2.08
2022-10-26T07:54:03.550Z,1.98
2022-10-26T07:56:45.482Z,2.83
2022-10-26T07:59:41.379Z,1.60
2022-10-26T08:02:15.027Z,1.58
2022-10-26T08:04:43.924Z,1.90
2022-10-26T08:07:10.395Z,2.25
2022-10-26T08:09:36.905Z,1.73
2022-10-26T08:12:03.488Z,1.55
2022-10-26T08:14:30.112Z,1.88
2022-10-26T08:17:01.794Z,1.30
2022-10-26T08:19:28.204Z,1.75
2022-10-26T08:21:54.656Z,1.73
2022-10-26T08:24:21.094Z,1.90
2022-10-26T08:26:47.536Z,1.63
2022-10-26T08:29:14.162Z,2.03
2022-10-26T08:31:40.693Z,2.53
2022-10-26T08:34:07.451Z,1.73
2022-10-26T08:36:33.988Z,2.00
2022-10-26T08:41:52.758Z,2.17
2022-10-26T08:44:42.344Z,2.08
2022-10-26T08:47:24.063Z,2.00
2022-10-26T08:49:59.640Z,2.70
2022-10-26T08:52:36.725Z,2.35
2022-10-26T08:55:06.315Z,2.60
2022-10-26T08:57:41.246Z,2.85
2022-10-26T09:00:29.448Z,3.08
2022-10-26T09:03:16.253Z,3.25
2022-10-26T09:06:12.118Z,2.78
2022-10-26T09:09:14.382Z,2.63
2022-10-26T09:12:15.152Z,2.35
2022-10-26T09:14:43.441Z,2.65
2022-10-26T09:17:26.970Z,2.65
2022-10-26T09:20:35.277Z,4.63
2022-10-26T09:23:20.414Z,2.75
2022-10-26T09:25:55.076Z,2.78
2022-10-26T09:28:21.997Z,2.80
2022-10-26T09:30:48.693Z,2.88
2022-10-26T09:33:23.283Z,2.83
2022-10-26T09:35:59.191Z,2.90
2022-10-26T09:38:34.614Z,2.25
2022-10-26T09:41:27.149Z,2.75
2022-10-26T09:44:27.138Z,2.53
2022-10-26T09:47:03.125Z,2.88
2022-10-26T09:49:53.522Z,2.38
2022-10-26T09:52:20.030Z,2.88
2022-10-26T09:54:46.489Z,2.65
2022-10-26T09:57:16.079Z,2.65
2022-10-26T09:59:42.823Z,2.92
2022-10-26T10:02:43.973Z,2.83
2022-10-26T10:05:49.793Z,2.63
2022-10-26T10:08:19.523Z,2.90
2022-10-26T10:10:59.991Z,2.40
2022-10-26T10:13:35.878Z,2.50
2022-10-26T10:16:04.510Z,2.17
2022-10-26T10:18:31.688Z,2.15
2022-10-26T10:20:59.628Z,2.22
2022-10-26T10:23:33.358Z,2.70
2022-10-26T10:28:42.824Z,2.35
2022-10-26T10:31:22.330Z,2.00
2022-10-26T10:33:58.219Z,2.40
2022-10-26T10:36:32.336Z,1.90
2022-10-26T10:39:03.147Z,2.33
2022-10-26T10:41:36.311Z,2.25
2022-10-26T10:44:15.202Z,1.58
2022-10-26T10:46:43.857Z,1.77
2022-10-26T10:49:22.805Z,1.60
2022-10-26T10:51:49.730Z,2.30
2022-10-26T10:54:31.979Z,1.92
2022-10-26T10:57:48.907Z,2.13
2022-10-26T11:00:18.753Z,2.08
2022-10-26T11:03:16.775Z,2.30
2022-10-26T11:06:03.567Z,2.25
2022-10-26T11:08:45.368Z,1.73
2022-10-26T11:11:44.702Z,2.13
2022-10-26T11:14:18.703Z,1.88
2022-10-26T11:17:11.437Z,2.30
2022-10-26T11:19:45.257Z,2.95
2022-10-26T11:22:16.796Z,2.33
2022-10-26T11:25:07.722Z,2.97
2022-10-26T11:27:43.558Z,2.42
2022-10-26T11:30:18.221Z,1.88
2022-10-26T11:32:51.112Z,2.00
2022-10-26T11:35:36.684Z,2.53
2022-10-26T11:38:05.995Z,2.17
2022-10-26T11:40:54.705Z,2.20
2022-10-26T11:43:41.332Z,2.83
2022-10-26T11:46:27.943Z,1.73
2022-10-26T11:49:11.202Z,2.00
2022-10-26T11:52:26.867Z,1.73
2022-10-26T11:54:54.546Z,2.00
2022-10-26T11:57:25.974Z,1.63
2022-10-26T12:00:02.449Z,1.73
2022-10-26T12:03:08.976Z,2.10
2022-10-26T12:05:38.354Z,2.33
2022-10-26T12:08:37.586Z,1.75
2022-10-26T12:11:13.352Z,1.40
2022-10-26T12:13:56.604Z,1.70
2022-10-26T12:16:48.595Z,1.20
2022-10-26T12:19:42.250Z,1.42
2022-10-26T12:22:14.697Z,1.70
2022-10-26T12:24:46.343Z,1.48
2022-10-26T12:30:26.924Z,1.75
2022-10-26T12:32:55.475Z,1.63
2022-10-26T12:35:44.434Z,1.10
2022-10-26T12:38:29.141Z,1.55
2022-10-26T12:41:05.215Z,1.70
2022-10-26T12:43:33.740Z,1.67
2022-10-26T12:46:12.450Z,1.75
2022-10-26T12:48:47.415Z,1.85
2022-10-26T12:51:21.532Z,1.95
2022-10-26T12:54:06.907Z,1.25
2022-10-26T12:57:06.452Z,1.60
2022-10-26T13:00:05.797Z,1.50
2022-10-26T13:03:04.281Z,1.80
2022-10-26T13:06:07.296Z,1.80
2022-10-26T13:11:38.616Z,1.65
2022-10-26T13:14:08.999Z,1.52
2022-10-26T13:16:35.727Z,1.50
2022-10-26T13:19:02.809Z,1.88
2022-10-26T13:21:31.664Z,1.50
2022-10-26T13:24:06.148Z,1.17
2022-10-26T13:27:17.495Z,1.52
2022-10-26T13:30:35.634Z,1.60
2022-10-26T13:33:03.911Z,1.50
2022-10-26T13:35:31.751Z,1.23
2022-10-26T13:38:07.413Z,1.25
2022-10-26T13:40:38.219Z,1.45
2022-10-26T13:43:10.788Z,1.65
2022-10-26T13:45:47.273Z,1.35
2022-10-26T13:48:31.105Z,1.00
2022-10-26T13:51:15.826Z,1.20
2022-10-26T13:53:55.148Z,1.80
2022-10-26T13:56:21.650Z,1.30
2022-10-26T14:02:06.468Z,1.65
2022-10-26T14:04:32.954Z,1.10
2022-10-26T14:06:59.548Z,1.40
2022-10-26T14:09:28.846Z,1.63
2022-10-26T14:12:00.957Z,1.13
2022-10-26T14:14:32.328Z,1.48
2022-10-26T14:16:59.581Z,1.00
2022-10-26T14:19:31.482Z,1.13
2022-10-26T14:21:58.801Z,1.38
2022-10-26T14:24:48.264Z,1.42
2022-10-26T14:27:23.193Z,1.15
2022-10-26T14:30:20.483Z,1.30
2022-10-26T14:32:40.144Z,1.60
2022-10-26T14:35:12.569Z,1.30
2022-10-26T14:37:46.341Z,1.20
2022-10-26T14:40:27.297Z,1.25
2022-10-26T14:43:02.446Z,1.30
2022-10-26T14:45:49.188Z,1.25
2022-10-26T14:48:31.281Z,2.22
2022-10-26T14:51:10.979Z,2.17
2022-10-26T14:53:40.834Z,1.50
2022-10-26T14:56:30.047Z,1.27
2022-10-26T14:58:59.196Z,1.05
2022-10-26T15:01:34.546Z,1.73
2022-10-26T15:04:07.351Z,1.40
2022-10-26T15:06:44.431Z,1.38
2022-10-26T15:09:32.805Z,1.73
2022-10-26T15:11:59.937Z,1.55
2022-10-26T15:14:27.497Z,1.33
2022-10-26T15:16:56.948Z,1.25
2022-10-26T15:19:24.371Z,1.42
2022-10-26T15:21:53.121Z,1.90
2022-10-26T15:24:22.626Z,1.55
2022-10-26T15:26:52.485Z,2.60
2022-10-26T15:29:36.663Z,1.60
2022-10-26T15:32:07.550Z,1.80
2022-10-26T15:34:34.074Z,1.50
2022-10-26T15:37:00.558Z,2.05
2022-10-26T15:39:27.600Z,2.15
2022-10-26T15:41:54.308Z,2.45
2022-10-26T15:44:22.118Z,1.73
2022-10-26T15:46:50.052Z,1.85
2022-10-26T15:49:19.756Z,1.67
2022-10-26T15:51:48.010Z,1.60
2022-10-26T15:54:15.221Z,1.58
2022-10-26T15:56:43.701Z,2.10
2022-10-26T15:59:17.719Z,1.70
2022-10-26T16:01:44.510Z,1.40
2022-10-26T16:04:12.137Z,1.70
2022-10-26T16:06:40.911Z,1.92
2022-10-26T16:09:15.618Z,2.47
2022-10-26T16:11:43.123Z,1.63
2022-10-26T16:14:10.876Z,2.03
2022-10-26T16:16:37.553Z,1.60
2022-10-26T16:19:29.402Z,2.00
2022-10-26T16:21:51.495Z,1.83
2022-10-26T16:24:18.195Z,1.58
2022-10-26T16:26:44.677Z,11.80
2022-10-26T16:29:11.158Z,6.53
2022-10-26T16:31:37.598Z,5.43
2022-10-26T16:34:04.407Z,4.00
2022-10-26T16:36:33.990Z,2.70
2022-10-26T16:41:27.379Z,2.28
2022-10-26T16:43:56.372Z,2.13
2022-10-26T16:46:22.823Z,4.18
2022-10-26T16:48:50.283Z,2.05
2022-10-26T16:51:22.060Z,1.98
2022-10-26T16:53:51.609Z,1.75
2022-10-26T16:56:20.216Z,3.33
2022-10-26T16:58:46.901Z,2.03
2022-10-26T17:01:18.196Z,2.22
2022-10-26T17:03:45.789Z,1.98
2022-10-26T17:06:12.840Z,2.78
2022-10-26T17:08:39.517Z,2.33
2022-10-26T17:11:15.675Z,2.67
2022-10-26T17:13:42.332Z,3.08
2022-10-26T17:16:12.962Z,3.10
2022-10-26T17:18:40.988Z,2.90
2022-10-26T17:21:09.159Z,2.22
2022-10-26T17:23:35.604Z,2.70
2022-10-26T17:26:28.598Z,3.15
2022-10-26T17:28:56.845Z,3.97
2022-10-26T17:31:25.003Z,3.20
2022-10-26T17:33:51.758Z,2.90
2022-10-26T17:36:20.631Z,2.83
2022-10-26T17:38:52.335Z,2.55
2022-10-26T17:41:20.602Z,2.42
2022-10-26T17:43:49.052Z,3.22
2022-10-26T17:46:22.827Z,3.17
2022-10-26T17:51:18.317Z,3.05
2022-10-26T17:53:49.247Z,3.63
2022-10-26T17:56:21.402Z,6.00
2022-10-26T17:58:56.405Z,5.25
2022-10-26T18:01:23.299Z,6.22
2022-10-26T18:03:50.274Z,7.72
2022-10-26T18:06:17.639Z,6.10
2022-10-26T18:08:45.225Z,3.40
2022-10-26T18:11:14.900Z,4.15
2022-10-26T18:13:41.411Z,3.25
2022-10-26T18:16:12.409Z,2.70
2022-10-26T18:18:41.087Z,3.70
2022-10-26T18:21:10.897Z,3.90
2022-10-26T18:23:37.857Z,8.45
2022-10-26T18:26:15.207Z,11.50
2022-10-26T18:28:42.164Z,4.85
2022-10-26T18:31:11.409Z,8.50
2022-10-26T18:33:38.619Z,7.38
2022-10-26T18:36:08.825Z,5.40
2022-10-26T18:38:35.713Z,4.88
2022-10-26T18:41:29.027Z,6.72
2022-10-26T18:43:58.901Z,3.50
2022-10-26T18:46:30.739Z,7.10
2022-10-26T18:48:59.242Z,3.40
2022-10-26T18:51:30.504Z,5.40
2022-10-26T18:53:58.288Z,8.38
2022-10-26T18:56:25.559Z,7.18
2022-10-26T18:58:57.110Z,2.17
2022-10-26T19:01:28.721Z,2.50
2022-10-26T19:04:03.125Z,3.28
2022-10-26T19:06:35.426Z,2.75
2022-10-26T19:09:02.596Z,2.80
2022-10-26T19:11:30.589Z,3.00
2022-10-26T19:13:57.622Z,3.33
2022-10-26T19:16:44.771Z,3.55
2022-10-26T19:19:13.629Z,3.55
2022-10-26T19:21:40.119Z,4.72
2022-10-26T19:24:11.985Z,3.17
2022-10-26T19:26:42.421Z,3.97
2022-10-26T19:29:14.918Z,3.17
2022-10-26T19:31:42.892Z,3.83
2022-10-26T19:34:10.731Z,4.30
2022-10-26T19:36:37.192Z,4.05
2022-10-26T19:39:03.667Z,3.50
2022-10-26T19:41:31.263Z,3.80
2022-10-26T19:46:32.583Z,4.72
2022-10-26T19:49:01.321Z,3.92
2022-10-26T19:51:30.581Z,3.55
2022-10-26T19:54:03.206Z,4.57
2022-10-26T19:56:34.410Z,3.80
2022-10-26T19:59:02.119Z,2.88
2022-10-26T20:01:28.960Z,3.08
2022-10-26T20:03:55.721Z,3.22
2022-10-26T20:06:22.230Z,2.40
2022-10-26T20:08:49.650Z,2.67
2022-10-26T20:11:17.668Z,2.90
2022-10-26T20:13:46.065Z,3.38
2022-10-26T20:16:13.601Z,2.83
2022-10-26T20:18:43.977Z,2.65
2022-10-26T20:21:14.302Z,9.13
2022-10-26T20:23:40.739Z,4.82
2022-10-26T20:26:07.318Z,3.20
2022-10-26T20:28:33.843Z,2.53
2022-10-26T20:31:01.005Z,2.63
2022-10-26T20:33:27.553Z,2.53
2022-10-26T20:35:58.647Z,2.17
2022-10-26T20:38:26.163Z,2.72
2022-10-26T20:40:57.815Z,2.17
2022-10-26T20:43:26.286Z,2.28
2022-10-26T20:45:54.114Z,2.88
2022-10-26T20:48:21.216Z,2.97
2022-10-26T20:50:59.224Z,2.33
2022-10-26T20:53:32.192Z,2.97
2022-10-26T20:56:01.517Z,3.23
2022-10-26T20:58:49.926Z,3.20
2022-10-26T21:01:30.168Z,3.42
2022-10-26T21:03:59.023Z,2.80
2022-10-26T21:06:26.166Z,2.45
2022-10-26T21:08:54.365Z,3.42
2022-10-26T21:11:22.956Z,2.55
2022-10-26T21:13:50.268Z,2.70
2022-10-26T21:16:17.277Z,2.95
2022-10-26T21:18:43.915Z,3.05
2022-10-26T21:21:10.596Z,3.05
2022-10-26T21:23:39.353Z,3.20
2022-10-26T21:26:06.655Z,2.70
2022-10-26T21:28:39.207Z,2.72
2022-10-26T21:31:07.472Z,2.50
2022-10-26T21:33:34.175Z,2.35
2022-10-26T21:36:02.661Z,2.38
2022-10-26T21:38:30.593Z,3.00
2022-10-26T21:41:06.285Z,2.15
2022-10-26T21:43:33.638Z,3.30
2022-10-26T21:46:03.396Z,3.08
2022-10-26T21:48:31.532Z,2.92
2022-10-26T21:50:58.093Z,2.42
2022-10-26T21:53:26.668Z,3.55
2022-10-26T21:56:04.328Z,2.83
2022-10-26T21:58:31.076Z,2.30
